KGEG/GEG METAR and TAF weather

Enter ICAO airport designator
Station Type Date Time Source
KGEG METAR 2020/06/06 13:53 UTC NOAA

KGEG 061353Z 20007KT 10SM FEW007 FEW011 FEW110 BKN250 09/07 A2971 RMK AO2 SLP056 T00940067


Station Type Date Time Source
KGEG Decoded METAR 2020/06/06 13:53 UTC NOAA

SPOKANE INTERNATIONAL AIRPORT , WA, United States (KGEG) 47-37N 117-32W 735M
Jun 06, 2020 - 09:53 AM EDT / 2020.06.06 1353 UTC
Wind: from the SSW (200 degrees) at 8 MPH (7 KT):0
Visibility: 10 mile(s):0
Sky conditions: mostly cloudy
Temperature: 48.9 F (9.4 C)
Dew Point: 44.1 F (6.7 C)
Relative Humidity: 83%
Pressure (altimeter): 29.71 in. Hg (1006 hPa)
ob: KGEG 061353Z 20007KT 10SM FEW007 FEW011 FEW110 BKN250 09/07 A2971 RMK AO2 SLP056 T00940067
cycle: 14

Station Type Date Time Source
KGEG TAF 2020/06/06 12:40 UTC NOAA

TAF KGEG 061138Z 0612/0712 19008KT P6SM FEW006 BKN013 OVC060
FM061600 20011KT P6SM SCT015 BKN060 BKN250
FM061800 20010G16KT P6SM SCT040 BKN200
FM070100 21010KT P6SM FEW050 SCT200
FM070800 19014KT P6SM BKN150

Example: see airport list